Terminal Aerodrome Forecast
Issued by NWS Louisville, KY

Home | Current Version | Previous Version | Text Only | Print | Product List | Glossary On
Versions: 1 2 3 4 5 6 7 8 9 10 11 12 13 14 15 16 17 18 19 20
000
FTUS43 KLMK 091700
TAFBWG
TAF
KBWG 091720Z 0918/1018 28007KT P6SM BKN060
     FM100000 00000KT P6SM FEW050
      TEMPO 1009/1013 5SM BR
     FM101400 36005KT P6SM SKC=

USA.gov is the U.S. government's official web portal to all federal, state and local government web resources and services.